sensor_id;sensor_type;location;lat;lon;timestamp;temperature;humidity
48806;DHT22;34625;47.176;27.548;2022-08-25T00:01:11;28.60;60.00
48806;DHT22;34625;47.176;27.548;2022-08-25T00:03:40;28.60;59.90
48806;DHT22;34625;47.176;27.548;2022-08-25T00:06:07;28.50;59.90
48806;DHT22;34625;47.176;27.548;2022-08-25T00:08:34;28.50;59.90
48806;DHT22;34625;47.176;27.548;2022-08-25T00:11:04;28.50;59.90
48806;DHT22;34625;47.176;27.548;2022-08-25T00:13:31;28.50;59.90
48806;DHT22;34625;47.176;27.548;2022-08-25T00:15:57;28.40;60.00
48806;DHT22;34625;47.176;27.548;2022-08-25T00:18:23;28.50;60.00
48806;DHT22;34625;47.176;27.548;2022-08-25T00:20:50;28.40;60.00
48806;DHT22;34625;47.176;27.548;2022-08-25T00:23:17;28.30;60.00
48806;DHT22;34625;47.176;27.548;2022-08-25T00:25:43;28.40;60.00
48806;DHT22;34625;47.176;27.548;2022-08-25T00:28:10;28.30;59.90
48806;DHT22;34625;47.176;27.548;2022-08-25T00:30:36;28.30;60.00
48806;DHT22;34625;47.176;27.548;2022-08-25T00:33:03;28.30;60.00
48806;DHT22;34625;47.176;27.548;2022-08-25T00:35:29;28.30;60.10
48806;DHT22;34625;47.176;27.548;2022-08-25T00:37:55;28.20;60.20
48806;DHT22;34625;47.176;27.548;2022-08-25T00:40:23;28.30;60.20
48806;DHT22;34625;47.176;27.548;2022-08-25T00:42:50;28.20;60.30
48806;DHT22;34625;47.176;27.548;2022-08-25T00:45:16;28.30;60.20
48806;DHT22;34625;47.176;27.548;2022-08-25T00:47:43;28.20;60.20
48806;DHT22;34625;47.176;27.548;2022-08-25T00:50:10;28.20;60.20
48806;DHT22;34625;47.176;27.548;2022-08-25T00:52:57;28.30;60.30
48806;DHT22;34625;47.176;27.548;2022-08-25T00:55:33;28.20;60.30
48806;DHT22;34625;47.176;27.548;2022-08-25T00:58:18;28.20;60.30
48806;DHT22;34625;47.176;27.548;2022-08-25T01:00:49;28.20;60.30
48806;DHT22;34625;47.176;27.548;2022-08-25T01:03:16;28.20;60.20
48806;DHT22;34625;47.176;27.548;2022-08-25T01:05:44;28.30;60.20
48806;DHT22;34625;47.176;27.548;2022-08-25T01:08:12;28.40;60.20
48806;DHT22;34625;47.176;27.548;2022-08-25T01:10:40;28.40;60.20
48806;DHT22;34625;47.176;27.548;2022-08-25T01:13:12;28.30;60.10
48806;DHT22;34625;47.176;27.548;2022-08-25T01:15:39;28.40;60.10
48806;DHT22;34625;47.176;27.548;2022-08-25T01:18:06;28.20;60.10
48806;DHT22;34625;47.176;27.548;2022-08-25T01:20:34;28.40;60.10
48806;DHT22;34625;47.176;27.548;2022-08-25T01:23:00;28.20;60.10
48806;DHT22;34625;47.176;27.548;2022-08-25T01:25:33;28.20;60.10
48806;DHT22;34625;47.176;27.548;2022-08-25T01:28:04;28.30;60.10
48806;DHT22;34625;47.176;27.548;2022-08-25T01:30:31;28.20;60.20
48806;DHT22;34625;47.176;27.548;2022-08-25T01:32:57;28.30;60.20
48806;DHT22;34625;47.176;27.548;2022-08-25T01:35:23;28.20;60.20
48806;DHT22;34625;47.176;27.548;2022-08-25T01:37:49;28.20;60.20
48806;DHT22;34625;47.176;27.548;2022-08-25T01:40:15;28.10;60.20
48806;DHT22;34625;47.176;27.548;2022-08-25T01:45:23;28.20;60.50
48806;DHT22;34625;47.176;27.548;2022-08-25T01:47:49;28.10;60.50
48806;DHT22;34625;47.176;27.548;2022-08-25T01:50:16;28.10;60.50
48806;DHT22;34625;47.176;27.548;2022-08-25T01:55:26;28.20;60.50
48806;DHT22;34625;47.176;27.548;2022-08-25T01:57:52;28.10;60.50
48806;DHT22;34625;47.176;27.548;2022-08-25T02:00:21;28.20;60.50
48806;DHT22;34625;47.176;27.548;2022-08-25T02:02:47;28.10;60.50
48806;DHT22;34625;47.176;27.548;2022-08-25T02:05:14;28.10;60.50
48806;DHT22;34625;47.176;27.548;2022-08-25T02:07:42;28.20;60.50
48806;DHT22;34625;47.176;27.548;2022-08-25T02:10:11;28.10;60.50
48806;DHT22;34625;47.176;27.548;2022-08-25T02:12:37;28.10;60.50
48806;DHT22;34625;47.176;27.548;2022-08-25T02:15:05;28.20;60.50
48806;DHT22;34625;47.176;27.548;2022-08-25T02:17:34;28.20;60.50
48806;DHT22;34625;47.176;27.548;2022-08-25T02:20:05;28.20;60.40
48806;DHT22;34625;47.176;27.548;2022-08-25T02:22:33;28.20;60.50
48806;DHT22;34625;47.176;27.548;2022-08-25T02:24:59;28.00;60.40
48806;DHT22;34625;47.176;27.548;2022-08-25T02:27:25;28.20;60.40
48806;DHT22;34625;47.176;27.548;2022-08-25T02:29:51;28.10;60.40
48806;DHT22;34625;47.176;27.548;2022-08-25T02:32:17;28.10;60.40
48806;DHT22;34625;47.176;27.548;2022-08-25T02:34:43;28.10;60.40
48806;DHT22;34625;47.176;27.548;2022-08-25T02:37:10;28.10;60.40
48806;DHT22;34625;47.176;27.548;2022-08-25T02:39:37;27.90;59.90
48806;DHT22;34625;47.176;27.548;2022-08-25T02:42:04;28.10;60.50
48806;DHT22;34625;47.176;27.548;2022-08-25T02:44:31;28.10;60.50
48806;DHT22;34625;47.176;27.548;2022-08-25T02:46:57;28.00;60.50
48806;DHT22;34625;47.176;27.548;2022-08-25T02:49:23;28.00;60.60
48806;DHT22;34625;47.176;27.548;2022-08-25T02:51:49;28.00;60.70
48806;DHT22;34625;47.176;27.548;2022-08-25T02:54:16;28.00;60.70
48806;DHT22;34625;47.176;27.548;2022-08-25T02:56:42;27.90;60.20
48806;DHT22;34625;47.176;27.548;2022-08-25T02:59:08;27.90;60.20
48806;DHT22;34625;47.176;27.548;2022-08-25T03:01:34;28.00;60.70
48806;DHT22;34625;47.176;27.548;2022-08-25T03:04:00;27.90;60.10
48806;DHT22;34625;47.176;27.548;2022-08-25T03:06:27;28.00;60.70
48806;DHT22;34625;47.176;27.548;2022-08-25T03:08:53;28.10;60.80
48806;DHT22;34625;47.176;27.548;2022-08-25T03:11:20;28.10;60.70
48806;DHT22;34625;47.176;27.548;2022-08-25T03:13:46;28.00;60.70
48806;DHT22;34625;47.176;27.548;2022-08-25T03:16:15;27.90;60.10
48806;DHT22;34625;47.176;27.548;2022-08-25T03:18:41;28.00;60.70
48806;DHT22;34625;47.176;27.548;2022-08-25T03:21:09;27.90;60.10
48806;DHT22;34625;47.176;27.548;2022-08-25T03:23:36;28.00;60.60
48806;DHT22;34625;47.176;27.548;2022-08-25T03:26:02;28.00;60.60
48806;DHT22;34625;47.176;27.548;2022-08-25T03:28:47;28.00;60.60
48806;DHT22;34625;47.176;27.548;2022-08-25T03:31:13;28.10;60.50
48806;DHT22;34625;47.176;27.548;2022-08-25T03:33:39;28.10;60.50
48806;DHT22;34625;47.176;27.548;2022-08-25T03:36:07;28.00;60.50
48806;DHT22;34625;47.176;27.548;2022-08-25T03:38:34;27.90;60.00
48806;DHT22;34625;47.176;27.548;2022-08-25T03:41:14;28.00;60.50
48806;DHT22;34625;47.176;27.548;2022-08-25T03:43:41;28.00;60.50
48806;DHT22;34625;47.176;27.548;2022-08-25T03:46:08;28.00;60.50
48806;DHT22;34625;47.176;27.548;2022-08-25T03:48:34;27.90;60.00
48806;DHT22;34625;47.176;27.548;2022-08-25T03:51:00;27.90;60.00
48806;DHT22;34625;47.176;27.548;2022-08-25T03:53:26;27.90;60.00
48806;DHT22;34625;47.176;27.548;2022-08-25T03:55:52;27.90;60.00
48806;DHT22;34625;47.176;27.548;2022-08-25T03:58:18;27.90;60.20
48806;DHT22;34625;47.176;27.548;2022-08-25T04:00:44;27.90;60.20
48806;DHT22;34625;47.176;27.548;2022-08-25T04:03:10;27.90;60.30
48806;DHT22;34625;47.176;27.548;2022-08-25T04:05:36;27.90;60.10
48806;DHT22;34625;47.176;27.548;2022-08-25T04:08:03;28.00;60.40
48806;DHT22;34625;47.176;27.548;2022-08-25T04:10:29;28.20;60.20
48806;DHT22;34625;47.176;27.548;2022-08-25T04:12:56;28.10;60.10
48806;DHT22;34625;47.176;27.548;2022-08-25T04:15:22;28.10;60.00
48806;DHT22;34625;47.176;27.548;2022-08-25T04:17:50;28.20;59.80
48806;DHT22;34625;47.176;27.548;2022-08-25T04:20:16;28.30;59.80
48806;DHT22;34625;47.176;27.548;2022-08-25T04:22:42;28.20;59.90
48806;DHT22;34625;47.176;27.548;2022-08-25T04:25:08;28.20;59.90
48806;DHT22;34625;47.176;27.548;2022-08-25T04:27:35;28.10;60.00
48806;DHT22;34625;47.176;27.548;2022-08-25T04:30:02;28.10;60.00
48806;DHT22;34625;47.176;27.548;2022-08-25T04:32:29;28.20;60.00
48806;DHT22;34625;47.176;27.548;2022-08-25T04:34:56;28.20;59.90
48806;DHT22;34625;47.176;27.548;2022-08-25T04:37:22;28.10;59.90
48806;DHT22;34625;47.176;27.548;2022-08-25T04:39:48;28.10;59.80
48806;DHT22;34625;47.176;27.548;2022-08-25T04:42:14;28.10;59.80
48806;DHT22;34625;47.176;27.548;2022-08-25T04:44:41;28.10;59.80
48806;DHT22;34625;47.176;27.548;2022-08-25T04:47:07;28.10;59.90
48806;DHT22;34625;47.176;27.548;2022-08-25T04:49:34;28.00;59.80
48806;DHT22;34625;47.176;27.548;2022-08-25T04:52:02;28.10;59.80
48806;DHT22;34625;47.176;27.548;2022-08-25T04:54:28;28.10;59.90
48806;DHT22;34625;47.176;27.548;2022-08-25T04:56:54;28.00;59.80
48806;DHT22;34625;47.176;27.548;2022-08-25T04:59:20;28.00;59.90
48806;DHT22;34625;47.176;27.548;2022-08-25T05:01:46;28.20;59.90
48806;DHT22;34625;47.176;27.548;2022-08-25T05:04:14;28.00;60.00
48806;DHT22;34625;47.176;27.548;2022-08-25T05:06:41;28.00;60.00
48806;DHT22;34625;47.176;27.548;2022-08-25T05:09:08;28.00;59.90
48806;DHT22;34625;47.176;27.548;2022-08-25T05:11:34;28.10;59.90
48806;DHT22;34625;47.176;27.548;2022-08-25T05:14:02;28.10;59.80
48806;DHT22;34625;47.176;27.548;2022-08-25T05:16:29;28.20;59.70
48806;DHT22;34625;47.176;27.548;2022-08-25T05:18:55;28.20;59.60
48806;DHT22;34625;47.176;27.548;2022-08-25T05:21:25;28.10;59.60
48806;DHT22;34625;47.176;27.548;2022-08-25T05:23:56;28.20;59.50
48806;DHT22;34625;47.176;27.548;2022-08-25T05:26:24;28.30;59.50
48806;DHT22;34625;47.176;27.548;2022-08-25T05:28:53;28.40;59.40
48806;DHT22;34625;47.176;27.548;2022-08-25T05:31:20;28.40;59.30
48806;DHT22;34625;47.176;27.548;2022-08-25T05:33:47;28.30;59.30
48806;DHT22;34625;47.176;27.548;2022-08-25T05:36:14;28.30;59.30
48806;DHT22;34625;47.176;27.548;2022-08-25T05:38:42;28.30;59.20
48806;DHT22;34625;47.176;27.548;2022-08-25T05:41:11;28.30;59.10
48806;DHT22;34625;47.176;27.548;2022-08-25T05:43:39;28.40;59.10
48806;DHT22;34625;47.176;27.548;2022-08-25T05:46:06;28.30;59.10
48806;DHT22;34625;47.176;27.548;2022-08-25T05:48:33;28.30;59.00
48806;DHT22;34625;47.176;27.548;2022-08-25T05:51:00;28.50;59.00
48806;DHT22;34625;47.176;27.548;2022-08-25T05:53:28;28.40;59.00
48806;DHT22;34625;47.176;27.548;2022-08-25T05:55:56;28.20;59.00
48806;DHT22;34625;47.176;27.548;2022-08-25T05:58:24;28.20;58.90
48806;DHT22;34625;47.176;27.548;2022-08-25T06:00:50;28.40;58.90
48806;DHT22;34625;47.176;27.548;2022-08-25T06:03:17;28.30;58.90
48806;DHT22;34625;47.176;27.548;2022-08-25T06:05:43;28.30;59.00
48806;DHT22;34625;47.176;27.548;2022-08-25T06:08:09;28.30;59.10
48806;DHT22;34625;47.176;27.548;2022-08-25T06:10:36;28.30;59.00
48806;DHT22;34625;47.176;27.548;2022-08-25T06:13:02;28.40;58.90
48806;DHT22;34625;47.176;27.548;2022-08-25T06:15:29;28.40;58.80
48806;DHT22;34625;47.176;27.548;2022-08-25T06:17:55;28.50;58.70
48806;DHT22;34625;47.176;27.548;2022-08-25T06:20:25;28.50;58.70
48806;DHT22;34625;47.176;27.548;2022-08-25T06:22:52;28.50;58.70
48806;DHT22;34625;47.176;27.548;2022-08-25T06:25:21;28.60;58.70
48806;DHT22;34625;47.176;27.548;2022-08-25T06:27:47;28.60;58.70
48806;DHT22;34625;47.176;27.548;2022-08-25T06:30:16;28.60;58.60
48806;DHT22;34625;47.176;27.548;2022-08-25T06:32:44;28.60;58.60
48806;DHT22;34625;47.176;27.548;2022-08-25T06:35:13;28.60;58.60
48806;DHT22;34625;47.176;27.548;2022-08-25T06:37:39;28.60;58.60
48806;DHT22;34625;47.176;27.548;2022-08-25T06:40:08;28.80;58.60
48806;DHT22;34625;47.176;27.548;2022-08-25T06:42:35;28.70;58.60
48806;DHT22;34625;47.176;27.548;2022-08-25T06:45:01;28.80;58.50
48806;DHT22;34625;47.176;27.548;2022-08-25T06:47:27;28.70;58.50
48806;DHT22;34625;47.176;27.548;2022-08-25T06:49:54;28.70;58.50
48806;DHT22;34625;47.176;27.548;2022-08-25T06:52:20;28.60;58.50
48806;DHT22;34625;47.176;27.548;2022-08-25T06:54:46;28.60;58.50
48806;DHT22;34625;47.176;27.548;2022-08-25T06:57:12;28.60;58.10
48806;DHT22;34625;47.176;27.548;2022-08-25T06:59:38;28.60;58.50
48806;DHT22;34625;47.176;27.548;2022-08-25T07:02:05;28.60;58.50
48806;DHT22;34625;47.176;27.548;2022-08-25T07:04:34;28.50;58.50
48806;DHT22;34625;47.176;27.548;2022-08-25T07:07:01;28.50;58.40
48806;DHT22;34625;47.176;27.548;2022-08-25T07:09:27;28.60;58.50
48806;DHT22;34625;47.176;27.548;2022-08-25T07:11:53;28.50;58.60
48806;DHT22;34625;47.176;27.548;2022-08-25T07:14:20;28.60;58.60
48806;DHT22;34625;47.176;27.548;2022-08-25T07:16:46;28.70;58.60
48806;DHT22;34625;47.176;27.548;2022-08-25T07:19:13;28.60;58.60
48806;DHT22;34625;47.176;27.548;2022-08-25T07:21:41;28.60;58.60
48806;DHT22;34625;47.176;27.548;2022-08-25T07:24:09;28.70;58.60
48806;DHT22;34625;47.176;27.548;2022-08-25T07:26:38;28.70;58.60
48806;DHT22;34625;47.176;27.548;2022-08-25T07:29:10;28.70;58.60
48806;DHT22;34625;47.176;27.548;2022-08-25T07:31:37;28.70;58.60
48806;DHT22;34625;47.176;27.548;2022-08-25T07:34:04;28.70;58.60
48806;DHT22;34625;47.176;27.548;2022-08-25T07:36:48;28.70;58.60
48806;DHT22;34625;47.176;27.548;2022-08-25T07:39:14;28.70;58.50
48806;DHT22;34625;47.176;27.548;2022-08-25T07:41:42;28.70;58.50
48806;DHT22;34625;47.176;27.548;2022-08-25T07:44:10;28.80;58.50
48806;DHT22;34625;47.176;27.548;2022-08-25T07:46:37;28.70;58.50
48806;DHT22;34625;47.176;27.548;2022-08-25T07:49:03;28.80;58.40
48806;DHT22;34625;47.176;27.548;2022-08-25T07:51:30;28.80;58.00
48806;DHT22;34625;47.176;27.548;2022-08-25T07:53:56;28.70;58.40
48806;DHT22;34625;47.176;27.548;2022-08-25T07:56:22;28.70;58.40
48806;DHT22;34625;47.176;27.548;2022-08-25T07:58:48;28.70;58.40
48806;DHT22;34625;47.176;27.548;2022-08-25T08:01:15;28.70;58.40
48806;DHT22;34625;47.176;27.548;2022-08-25T08:03:42;28.70;58.40
48806;DHT22;34625;47.176;27.548;2022-08-25T08:06:10;28.70;58.50
48806;DHT22;34625;47.176;27.548;2022-08-25T08:08:41;28.70;58.30
48806;DHT22;34625;47.176;27.548;2022-08-25T08:11:18;28.60;58.40
48806;DHT22;34625;47.176;27.548;2022-08-25T08:13:46;28.70;58.50
48806;DHT22;34625;47.176;27.548;2022-08-25T08:16:14;28.60;58.50
48806;DHT22;34625;47.176;27.548;2022-08-25T08:18:44;28.70;58.60
48806;DHT22;34625;47.176;27.548;2022-08-25T08:21:21;28.60;58.50
48806;DHT22;34625;47.176;27.548;2022-08-25T08:23:49;28.60;58.60
48806;DHT22;34625;47.176;27.548;2022-08-25T08:26:16;28.60;58.50
48806;DHT22;34625;47.176;27.548;2022-08-25T08:28:42;28.60;58.60
48806;DHT22;34625;47.176;27.548;2022-08-25T08:31:08;28.70;58.60
48806;DHT22;34625;47.176;27.548;2022-08-25T08:33:35;28.70;58.60
48806;DHT22;34625;47.176;27.548;2022-08-25T08:36:05;28.70;58.60
48806;DHT22;34625;47.176;27.548;2022-08-25T08:38:33;28.70;58.60
48806;DHT22;34625;47.176;27.548;2022-08-25T08:55:22;28.70;58.50
48806;DHT22;34625;47.176;27.548;2022-08-25T08:57:51;28.80;58.40
48806;DHT22;34625;47.176;27.548;2022-08-25T09:00:18;28.70;58.50
48806;DHT22;34625;47.176;27.548;2022-08-25T09:03:04;28.70;58.50
48806;DHT22;34625;47.176;27.548;2022-08-25T09:05:37;28.70;58.60
48806;DHT22;34625;47.176;27.548;2022-08-25T09:08:11;28.80;58.60
48806;DHT22;34625;47.176;27.548;2022-08-25T09:22:31;28.70;58.60
48806;DHT22;34625;47.176;27.548;2022-08-25T09:25:22;28.60;58.60
48806;DHT22;34625;47.176;27.548;2022-08-25T09:28:05;28.90;58.70
48806;DHT22;34625;47.176;27.548;2022-08-25T09:33:21;28.60;58.40
48806;DHT22;34625;47.176;27.548;2022-08-25T09:35:49;28.50;58.70
48806;DHT22;34625;47.176;27.548;2022-08-25T09:38:16;28.60;58.70
48806;DHT22;34625;47.176;27.548;2022-08-25T09:40:49;28.70;58.80
48806;DHT22;34625;47.176;27.548;2022-08-25T09:46:10;28.60;58.90
48806;DHT22;34625;47.176;27.548;2022-08-25T09:48:46;28.60;58.90
48806;DHT22;34625;47.176;27.548;2022-08-25T09:51:28;28.70;58.90
48806;DHT22;34625;47.176;27.548;2022-08-25T09:54:17;28.70;58.70
48806;DHT22;34625;47.176;27.548;2022-08-25T09:57:02;28.60;58.90
48806;DHT22;34625;47.176;27.548;2022-08-25T09:59:32;28.70;58.90
48806;DHT22;34625;47.176;27.548;2022-08-25T10:02:19;28.60;58.80
48806;DHT22;34625;47.176;27.548;2022-08-25T10:04:46;28.80;58.90
48806;DHT22;34625;47.176;27.548;2022-08-25T10:07:27;28.70;58.90
48806;DHT22;34625;47.176;27.548;2022-08-25T10:09:59;28.70;58.80
48806;DHT22;34625;47.176;27.548;2022-08-25T10:12:31;28.80;58.90
48806;DHT22;34625;47.176;27.548;2022-08-25T10:18:26;28.90;58.80
48806;DHT22;34625;47.176;27.548;2022-08-25T10:23:28;28.80;58.80
48806;DHT22;34625;47.176;27.548;2022-08-25T10:25:55;28.90;58.70
48806;DHT22;34625;47.176;27.548;2022-08-25T10:34:00;28.80;58.50
48806;DHT22;34625;47.176;27.548;2022-08-25T10:36:36;28.80;58.70
48806;DHT22;34625;47.176;27.548;2022-08-25T10:39:14;29.00;59.10
48806;DHT22;34625;47.176;27.548;2022-08-25T10:45:07;28.90;58.60
48806;DHT22;34625;47.176;27.548;2022-08-25T10:48:07;28.90;57.50
48806;DHT22;34625;47.176;27.548;2022-08-25T10:50:50;28.90;58.50
48806;DHT22;34625;47.176;27.548;2022-08-25T10:58:52;29.10;58.90
48806;DHT22;34625;47.176;27.548;2022-08-25T11:04:14;29.00;58.90
48806;DHT22;34625;47.176;27.548;2022-08-25T11:06:48;29.00;58.90
48806;DHT22;34625;47.176;27.548;2022-08-25T11:09:19;29.00;58.90
48806;DHT22;34625;47.176;27.548;2022-08-25T11:11:57;29.00;58.80
48806;DHT22;34625;47.176;27.548;2022-08-25T11:14:27;29.10;58.80
48806;DHT22;34625;47.176;27.548;2022-08-25T11:19:42;29.10;58.70
48806;DHT22;34625;47.176;27.548;2022-08-25T11:22:32;29.20;58.70
48806;DHT22;34625;47.176;27.548;2022-08-25T11:25:10;29.20;58.70
48806;DHT22;34625;47.176;27.548;2022-08-25T11:30:23;29.00;58.70
48806;DHT22;34625;47.176;27.548;2022-08-25T11:32:52;29.20;58.70
48806;DHT22;34625;47.176;27.548;2022-08-25T11:35:40;29.10;58.60
48806;DHT22;34625;47.176;27.548;2022-08-25T11:38:21;29.10;58.40
48806;DHT22;34625;47.176;27.548;2022-08-25T11:44:03;29.00;58.50
48806;DHT22;34625;47.176;27.548;2022-08-25T11:57:40;29.00;57.90
48806;DHT22;34625;47.176;27.548;2022-08-25T12:00:11;29.10;58.60
48806;DHT22;34625;47.176;27.548;2022-08-25T12:02:50;29.10;58.60
48806;DHT22;34625;47.176;27.548;2022-08-25T12:08:03;29.10;58.60
48806;DHT22;34625;47.176;27.548;2022-08-25T12:11:04;29.20;58.50
48806;DHT22;34625;47.176;27.548;2022-08-25T12:13:42;29.10;58.50
48806;DHT22;34625;47.176;27.548;2022-08-25T12:19:23;29.10;58.50
48806;DHT22;34625;47.176;27.548;2022-08-25T12:21:51;29.10;58.40
48806;DHT22;34625;47.176;27.548;2022-08-25T12:24:42;29.10;58.50
48806;DHT22;34625;47.176;27.548;2022-08-25T12:27:21;29.20;58.40
48806;DHT22;34625;47.176;27.548;2022-08-25T12:35:09;29.00;58.60
48806;DHT22;34625;47.176;27.548;2022-08-25T12:37:58;29.10;58.50
48806;DHT22;34625;47.176;27.548;2022-08-25T12:43:09;29.00;58.70
48806;DHT22;34625;47.176;27.548;2022-08-25T12:45:45;29.00;58.70
48806;DHT22;34625;47.176;27.548;2022-08-25T12:51:02;29.00;58.70
48806;DHT22;34625;47.176;27.548;2022-08-25T12:53:40;29.00;58.70
48806;DHT22;34625;47.176;27.548;2022-08-25T12:56:29;28.90;58.10
48806;DHT22;34625;47.176;27.548;2022-08-25T13:02:05;29.10;58.70
48806;DHT22;34625;47.176;27.548;2022-08-25T13:10:44;29.10;58.60
48806;DHT22;34625;47.176;27.548;2022-08-25T13:13:30;29.10;58.60
48806;DHT22;34625;47.176;27.548;2022-08-25T13:16:06;29.10;58.60
48806;DHT22;34625;47.176;27.548;2022-08-25T13:18:35;29.10;58.70
48806;DHT22;34625;47.176;27.548;2022-08-25T13:21:32;29.10;58.70
48806;DHT22;34625;47.176;27.548;2022-08-25T13:24:00;29.10;58.20
48806;DHT22;34625;47.176;27.548;2022-08-25T13:26:31;29.00;58.60
48806;DHT22;34625;47.176;27.548;2022-08-25T13:31:34;29.00;58.70
48806;DHT22;34625;47.176;27.548;2022-08-25T13:34:05;29.20;58.60
48806;DHT22;34625;47.176;27.548;2022-08-25T13:36:42;29.00;58.70
48806;DHT22;34625;47.176;27.548;2022-08-25T13:39:29;29.10;58.70
48806;DHT22;34625;47.176;27.548;2022-08-25T13:41:59;29.00;58.70
48806;DHT22;34625;47.176;27.548;2022-08-25T13:44:28;29.00;58.70
48806;DHT22;34625;47.176;27.548;2022-08-25T13:47:16;28.80;58.20
48806;DHT22;34625;47.176;27.548;2022-08-25T13:49:44;29.00;58.90
48806;DHT22;34625;47.176;27.548;2022-08-25T13:52:25;29.00;58.90
48806;DHT22;34625;47.176;27.548;2022-08-25T13:54:57;29.10;58.90
48806;DHT22;34625;47.176;27.548;2022-08-25T13:57:28;29.00;58.90
48806;DHT22;34625;47.176;27.548;2022-08-25T13:59:59;29.00;58.90
48806;DHT22;34625;47.176;27.548;2022-08-25T14:02:47;29.00;58.90
48806;DHT22;34625;47.176;27.548;2022-08-25T14:05:31;29.00;58.90
48806;DHT22;34625;47.176;27.548;2022-08-25T14:07:57;29.00;58.90
48806;DHT22;34625;47.176;27.548;2022-08-25T14:10:38;29.00;58.90
48806;DHT22;34625;47.176;27.548;2022-08-25T14:13:10;29.00;58.90
48806;DHT22;34625;47.176;27.548;2022-08-25T14:15:38;29.10;58.90
48806;DHT22;34625;47.176;27.548;2022-08-25T14:18:24;29.20;58.90
48806;DHT22;34625;47.176;27.548;2022-08-25T14:20:53;29.10;58.80
48806;DHT22;34625;47.176;27.548;2022-08-25T14:23:25;29.20;58.90
48806;DHT22;34625;47.176;27.548;2022-08-25T14:25:52;29.10;58.90
48806;DHT22;34625;47.176;27.548;2022-08-25T14:28:24;29.20;58.90
48806;DHT22;34625;47.176;27.548;2022-08-25T14:31:04;29.10;58.80
48806;DHT22;34625;47.176;27.548;2022-08-25T14:33:42;29.10;58.80
48806;DHT22;34625;47.176;27.548;2022-08-25T14:36:08;29.00;58.90
48806;DHT22;34625;47.176;27.548;2022-08-25T14:38:35;29.00;58.80
48806;DHT22;34625;47.176;27.548;2022-08-25T14:41:04;29.00;58.90
48806;DHT22;34625;47.176;27.548;2022-08-25T14:43:32;29.00;58.90
48806;DHT22;34625;47.176;27.548;2022-08-25T14:46:00;28.90;58.30
48806;DHT22;34625;47.176;27.548;2022-08-25T14:48:32;29.00;58.90
48806;DHT22;34625;47.176;27.548;2022-08-25T14:51:00;29.00;58.90
48806;DHT22;34625;47.176;27.548;2022-08-25T14:53:26;29.00;58.90
48806;DHT22;34625;47.176;27.548;2022-08-25T14:55:53;29.00;58.90
48806;DHT22;34625;47.176;27.548;2022-08-25T14:58:21;29.10;59.00
48806;DHT22;34625;47.176;27.548;2022-08-25T15:00:48;28.90;58.40
48806;DHT22;34625;47.176;27.548;2022-08-25T15:03:20;29.00;59.00
48806;DHT22;34625;47.176;27.548;2022-08-25T15:05:49;28.90;58.40
48806;DHT22;34625;47.176;27.548;2022-08-25T15:08:15;29.10;59.00
48806;DHT22;34625;47.176;27.548;2022-08-25T15:10:59;29.00;59.00
48806;DHT22;34625;47.176;27.548;2022-08-25T15:13:25;29.00;59.00
48806;DHT22;34625;47.176;27.548;2022-08-25T15:15:52;29.10;59.00
48806;DHT22;34625;47.176;27.548;2022-08-25T15:18:19;29.00;59.00
48806;DHT22;34625;47.176;27.548;2022-08-25T15:20:45;29.10;59.00
48806;DHT22;34625;47.176;27.548;2022-08-25T15:23:11;29.00;59.00
48806;DHT22;34625;47.176;27.548;2022-08-25T15:25:37;29.00;59.00
48806;DHT22;34625;47.176;27.548;2022-08-25T15:28:05;29.20;58.90
48806;DHT22;34625;47.176;27.548;2022-08-25T15:30:32;29.00;58.90
48806;DHT22;34625;47.176;27.548;2022-08-25T15:32:59;29.20;58.90
48806;DHT22;34625;47.176;27.548;2022-08-25T15:35:25;29.10;58.90
48806;DHT22;34625;47.176;27.548;2022-08-25T15:37:51;29.10;58.90
48806;DHT22;34625;47.176;27.548;2022-08-25T15:40:18;29.10;58.90
48806;DHT22;34625;47.176;27.548;2022-08-25T15:42:44;29.10;58.90
48806;DHT22;34625;47.176;27.548;2022-08-25T15:45:10;29.00;58.90
48806;DHT22;34625;47.176;27.548;2022-08-25T15:47:36;29.00;58.90
48806;DHT22;34625;47.176;27.548;2022-08-25T15:50:10;29.00;58.90
48806;DHT22;34625;47.176;27.548;2022-08-25T15:52:40;29.00;58.90
48806;DHT22;34625;47.176;27.548;2022-08-25T15:55:07;29.00;58.90
48806;DHT22;34625;47.176;27.548;2022-08-25T15:57:34;28.90;58.40
48806;DHT22;34625;47.176;27.548;2022-08-25T16:00:05;29.10;58.90
48806;DHT22;34625;47.176;27.548;2022-08-25T16:02:32;29.00;58.90
48806;DHT22;34625;47.176;27.548;2022-08-25T16:05:00;29.10;58.90
48806;DHT22;34625;47.176;27.548;2022-08-25T16:07:26;28.90;58.40
48806;DHT22;34625;47.176;27.548;2022-08-25T16:09:56;28.90;58.50
48806;DHT22;34625;47.176;27.548;2022-08-25T16:12:22;29.10;59.00
48806;DHT22;34625;47.176;27.548;2022-08-25T16:14:49;29.00;59.00
48806;DHT22;34625;47.176;27.548;2022-08-25T16:17:15;29.10;59.00
48806;DHT22;34625;47.176;27.548;2022-08-25T16:19:41;29.10;59.00
48806;DHT22;34625;47.176;27.548;2022-08-25T16:22:07;29.10;59.00
48806;DHT22;34625;47.176;27.548;2022-08-25T16:24:33;29.10;59.00
48806;DHT22;34625;47.176;27.548;2022-08-25T16:26:59;29.10;58.90
48806;DHT22;34625;47.176;27.548;2022-08-25T16:29:31;29.00;59.00
48806;DHT22;34625;47.176;27.548;2022-08-25T16:31:59;29.00;59.00
48806;DHT22;34625;47.176;27.548;2022-08-25T16:34:25;29.00;58.90
48806;DHT22;34625;47.176;27.548;2022-08-25T16:36:52;29.00;58.90
48806;DHT22;34625;47.176;27.548;2022-08-25T16:39:20;29.20;58.90
48806;DHT22;34625;47.176;27.548;2022-08-25T16:41:46;29.00;58.90
48806;DHT22;34625;47.176;27.548;2022-08-25T16:44:12;29.00;58.90
48806;DHT22;34625;47.176;27.548;2022-08-25T16:46:41;29.10;58.80
48806;DHT22;34625;47.176;27.548;2022-08-25T16:49:08;29.10;58.80
48806;DHT22;34625;47.176;27.548;2022-08-25T16:51:36;29.10;58.90
48806;DHT22;34625;47.176;27.548;2022-08-25T16:54:03;29.00;58.80
48806;DHT22;34625;47.176;27.548;2022-08-25T16:56:48;29.10;58.90
48806;DHT22;34625;47.176;27.548;2022-08-25T16:59:14;29.00;58.90
48806;DHT22;34625;47.176;27.548;2022-08-25T17:01:41;29.00;58.90
48806;DHT22;34625;47.176;27.548;2022-08-25T17:04:08;29.00;58.90
48806;DHT22;34625;47.176;27.548;2022-08-25T17:06:38;29.10;58.90
48806;DHT22;34625;47.176;27.548;2022-08-25T17:09:06;28.90;58.30
48806;DHT22;34625;47.176;27.548;2022-08-25T17:11:35;28.80;58.40
48806;DHT22;34625;47.176;27.548;2022-08-25T17:14:08;28.90;58.40
48806;DHT22;34625;47.176;27.548;2022-08-25T17:16:35;28.90;58.40
48806;DHT22;34625;47.176;27.548;2022-08-25T17:19:04;28.90;58.40